createdAt,value
2023-05-02T00:03:27.968Z,21.30
2023-05-02T00:07:14.080Z,21.30
2023-05-02T00:10:59.299Z,21.30
2023-05-02T00:14:44.434Z,21.30
2023-05-02T00:18:29.997Z,21.30
2023-05-02T00:22:15.066Z,21.30
2023-05-02T00:25:59.783Z,21.30
2023-05-02T00:29:45.131Z,21.30
2023-05-02T00:33:30.865Z,21.30
2023-05-02T00:37:29.271Z,21.30
2023-05-02T00:41:15.998Z,21.30
2023-05-02T00:45:01.509Z,21.30
2023-05-02T00:48:47.600Z,21.30
2023-05-02T00:52:32.820Z,21.30
2023-05-02T00:56:18.244Z,21.30
2023-05-02T01:00:03.680Z,21.30
2023-05-02T01:04:19.067Z,21.30
2023-05-02T01:08:20.810Z,21.20
2023-05-02T01:12:09.394Z,21.20
2023-05-02T01:15:58.766Z,21.30
2023-05-02T01:19:51.182Z,21.20
2023-05-02T01:23:47.465Z,21.30
2023-05-02T01:28:06.256Z,21.30
2023-05-02T01:31:59.353Z,21.20
2023-05-02T01:35:47.142Z,21.20
2023-05-02T01:39:34.558Z,21.20
2023-05-02T01:43:18.256Z,21.20
2023-05-02T01:47:04.418Z,21.20
2023-05-02T01:50:52.769Z,21.20
2023-05-02T01:54:40.301Z,21.20
2023-05-02T01:58:29.094Z,21.20
2023-05-02T02:02:19.119Z,21.20
2023-05-02T02:06:05.597Z,21.20
2023-05-02T02:09:51.740Z,21.20
2023-05-02T02:13:48.766Z,21.20
2023-05-02T02:17:44.042Z,21.20
2023-05-02T02:21:34.030Z,21.20
2023-05-02T02:25:23.150Z,21.20
2023-05-02T02:29:13.136Z,21.20
2023-05-02T02:32:58.956Z,21.20
2023-05-02T02:37:17.506Z,21.10
2023-05-02T02:41:27.688Z,21.20
2023-05-02T02:45:21.954Z,21.10
2023-05-02T02:49:10.799Z,21.20
2023-05-02T02:53:11.822Z,21.10
2023-05-02T02:57:08.091Z,21.10
2023-05-02T03:00:56.520Z,21.10
2023-05-02T03:04:45.988Z,21.10
2023-05-02T03:08:41.308Z,21.10
2023-05-02T03:12:28.376Z,21.20
2023-05-02T03:16:26.971Z,21.10
2023-05-02T03:20:13.775Z,21.20
2023-05-02T03:24:03.690Z,21.10
2023-05-02T03:27:50.347Z,21.20
2023-05-02T03:31:36.537Z,21.20
2023-05-02T03:35:21.743Z,21.10
2023-05-02T03:39:09.038Z,21.10
2023-05-02T03:42:55.111Z,21.10
2023-05-02T03:46:41.974Z,21.10
2023-05-02T03:55:31.184Z,21.10
2023-05-02T03:59:17.366Z,21.10
2023-05-02T04:03:07.110Z,21.10
2023-05-02T04:06:54.135Z,21.10
2023-05-02T04:10:40.971Z,21.10
2023-05-02T04:14:28.105Z,21.10
2023-05-02T04:18:14.279Z,21.10
2023-05-02T04:22:00.858Z,21.10
2023-05-02T04:25:56.318Z,21.10
2023-05-02T04:29:45.724Z,21.00
2023-05-02T04:33:32.316Z,21.10
2023-05-02T04:37:18.613Z,21.00
2023-05-02T04:41:08.635Z,21.00
2023-05-02T04:44:55.253Z,21.00
2023-05-02T04:48:49.866Z,20.90
2023-05-02T04:52:36.134Z,21.00
2023-05-02T04:56:22.583Z,21.00
2023-05-02T05:00:38.685Z,21.00
2023-05-02T05:04:22.531Z,20.90
2023-05-02T05:08:05.961Z,21.00
2023-05-02T05:11:48.538Z,20.90
2023-05-02T05:15:36.354Z,21.00
2023-05-02T05:19:18.177Z,21.00
2023-05-02T05:28:04.352Z,20.90
2023-05-02T05:31:46.978Z,21.00
2023-05-02T05:35:35.051Z,21.00
2023-05-02T05:39:21.595Z,20.90
2023-05-02T05:43:08.176Z,20.90
2023-05-02T05:46:54.596Z,20.90
2023-05-02T05:50:40.703Z,21.00
2023-05-02T05:54:27.617Z,20.90
2023-05-02T05:58:14.366Z,20.90
2023-05-02T06:02:01.544Z,20.90
2023-05-02T06:05:51.438Z,20.90
2023-05-02T06:09:38.743Z,21.00
2023-05-02T06:13:25.285Z,20.90
2023-05-02T06:17:15.003Z,21.00
2023-05-02T06:21:01.469Z,20.90
2023-05-02T06:24:47.868Z,20.90
2023-05-02T06:28:35.139Z,20.90
2023-05-02T06:32:21.608Z,20.90
2023-05-02T06:36:11.190Z,20.90
2023-05-02T06:39:57.523Z,20.90
2023-05-02T06:43:44.767Z,20.90
2023-05-02T06:47:31.233Z,20.90
2023-05-02T06:51:18.757Z,20.90
2023-05-02T06:55:05.122Z,21.00
2023-05-02T06:58:56.602Z,20.90
2023-05-02T07:02:43.550Z,20.90
2023-05-02T07:06:30.830Z,20.90
2023-05-02T07:10:17.883Z,20.90
2023-05-02T07:14:03.701Z,20.90
2023-05-02T07:17:50.915Z,20.90
2023-05-02T07:21:40.327Z,20.90
2023-05-02T07:25:26.661Z,20.80
2023-05-02T07:29:13.054Z,20.60
2023-05-02T07:33:02.943Z,20.50
2023-05-02T07:36:49.738Z,20.50
2023-05-02T07:40:36.320Z,20.50
2023-05-02T07:44:22.834Z,20.50
2023-05-02T07:48:09.420Z,20.50
2023-05-02T07:51:55.914Z,20.50
2023-05-02T07:55:42.628Z,20.50
2023-05-02T07:59:29.751Z,20.50
2023-05-02T08:03:15.609Z,20.50
2023-05-02T08:07:02.642Z,20.60
2023-05-02T08:10:48.710Z,20.60
2023-05-02T08:14:35.503Z,20.60
2023-05-02T08:18:21.867Z,20.70
2023-05-02T08:27:07.729Z,20.70
2023-05-02T08:36:45.339Z,20.80
2023-05-02T08:41:07.587Z,20.80
2023-05-02T08:50:35.208Z,20.80
2023-05-02T08:54:57.760Z,20.80
2023-05-02T09:03:52.390Z,20.80
2023-05-02T09:13:23.660Z,20.90
2023-05-02T09:38:12.499Z,20.90
2023-05-02T09:42:30.722Z,21.00
2023-05-02T10:01:06.936Z,21.00
2023-05-02T10:05:31.597Z,21.00
2023-05-02T10:20:25.870Z,21.00
2023-05-02T10:29:51.033Z,21.00
2023-05-02T10:33:35.512Z,21.00
2023-05-02T10:37:23.046Z,21.10
2023-05-02T10:41:19.180Z,21.10
2023-05-02T10:45:13.390Z,21.10
2023-05-02T10:49:10.742Z,21.10
2023-05-02T10:52:57.980Z,21.10
2023-05-02T10:57:07.930Z,21.10
2023-05-02T11:00:57.507Z,21.20
2023-05-02T11:05:06.081Z,21.10
2023-05-02T11:08:52.701Z,21.20
2023-05-02T11:12:52.509Z,21.20
2023-05-02T11:17:02.511Z,21.20
2023-05-02T11:20:48.247Z,21.20
2023-05-02T11:25:01.379Z,21.20
2023-05-02T11:28:52.167Z,21.20
2023-05-02T11:32:51.886Z,21.20
2023-05-02T11:36:34.945Z,21.20
2023-05-02T11:40:18.875Z,21.20
2023-05-02T11:44:04.158Z,21.20
2023-05-02T11:47:47.482Z,21.20
2023-05-02T11:51:29.378Z,21.30
2023-05-02T11:55:13.047Z,21.30
2023-05-02T11:59:03.426Z,21.30
2023-05-02T12:02:47.752Z,21.30
2023-05-02T12:06:29.851Z,21.30
2023-05-02T12:10:12.934Z,21.30
2023-05-02T12:13:55.028Z,21.30
2023-05-02T12:17:53.088Z,21.30
2023-05-02T12:21:35.014Z,21.30
2023-05-02T12:25:16.993Z,21.40
2023-05-02T12:28:59.363Z,21.40
2023-05-02T12:32:45.384Z,21.30
2023-05-02T12:36:30.981Z,21.40
2023-05-02T12:40:19.633Z,21.40
2023-05-02T12:44:01.828Z,21.40
2023-05-02T12:47:46.667Z,21.40
2023-05-02T12:51:28.825Z,21.40
2023-05-02T12:55:24.366Z,21.40
2023-05-02T12:59:06.552Z,21.40
2023-05-02T13:02:48.430Z,21.40
2023-05-02T13:06:31.772Z,21.40
2023-05-02T13:10:13.784Z,21.40
2023-05-02T13:13:56.477Z,21.50
2023-05-02T13:17:38.347Z,21.40
2023-05-02T13:21:20.396Z,21.40
2023-05-02T13:25:02.210Z,21.50
2023-05-02T13:28:44.004Z,21.40
2023-05-02T13:32:25.814Z,21.50
2023-05-02T13:36:08.523Z,21.50
2023-05-02T13:39:50.395Z,21.50
2023-05-02T13:43:32.662Z,21.50
2023-05-02T13:47:14.375Z,21.50
2023-05-02T13:50:56.141Z,21.50
2023-05-02T13:54:41.778Z,21.50
2023-05-02T13:58:23.592Z,21.50
2023-05-02T14:02:05.956Z,21.50
2023-05-02T14:05:47.799Z,21.50
2023-05-02T14:09:29.615Z,21.50
2023-05-02T14:13:11.645Z,21.50
2023-05-02T14:16:53.522Z,21.60
2023-05-02T14:20:35.506Z,21.50
2023-05-02T14:24:18.329Z,21.60
2023-05-02T14:28:01.774Z,21.50
2023-05-02T14:31:43.675Z,21.50
2023-05-02T14:35:25.845Z,21.60
2023-05-02T14:39:07.578Z,21.60
2023-05-02T14:42:49.332Z,21.60
2023-05-02T14:46:31.229Z,21.60
2023-05-02T14:50:12.977Z,21.60
2023-05-02T14:53:54.718Z,21.60
2023-05-02T14:57:36.549Z,21.60
2023-05-02T15:01:19.792Z,21.60
2023-05-02T15:05:01.976Z,21.70
2023-05-02T15:08:44.943Z,21.60
2023-05-02T15:12:26.828Z,21.70
2023-05-02T15:16:10.732Z,21.70
2023-05-02T15:19:52.583Z,21.70
2023-05-02T15:23:34.350Z,21.70
2023-05-02T15:27:16.102Z,21.70
2023-05-02T15:30:57.847Z,21.70
2023-05-02T15:34:39.620Z,21.70
2023-05-02T15:38:21.592Z,21.70
2023-05-02T15:42:05.595Z,21.70
2023-05-02T15:45:58.306Z,21.70
2023-05-02T15:49:40.724Z,21.70
2023-05-02T15:53:23.576Z,21.70
2023-05-02T15:57:05.632Z,21.70
2023-05-02T16:00:52.323Z,21.70
2023-05-02T16:04:34.959Z,21.70
2023-05-02T16:08:16.820Z,21.70
2023-05-02T16:11:58.604Z,21.70
2023-05-02T16:15:40.421Z,21.70
2023-05-02T16:19:22.498Z,21.70
2023-05-02T16:23:04.713Z,21.70
2023-05-02T16:26:46.668Z,21.70
2023-05-02T16:30:28.586Z,21.70
2023-05-02T16:34:10.307Z,21.80
2023-05-02T16:37:52.020Z,21.80
2023-05-02T16:41:36.096Z,21.80
2023-05-02T16:45:17.926Z,21.80
2023-05-02T16:48:59.698Z,21.80
2023-05-02T16:52:41.476Z,21.80
2023-05-02T16:56:23.293Z,21.80
2023-05-02T17:00:06.002Z,21.80
2023-05-02T17:03:48.091Z,21.80
2023-05-02T17:07:30.005Z,21.80
2023-05-02T17:11:15.252Z,21.80
2023-05-02T17:14:57.271Z,21.80
2023-05-02T17:18:39.002Z,21.80
2023-05-02T17:22:21.330Z,21.70
2023-05-02T17:26:04.203Z,21.70
2023-05-02T17:29:46.397Z,21.70
2023-05-02T17:33:31.523Z,21.70
2023-05-02T17:37:13.345Z,21.70
2023-05-02T17:40:55.136Z,21.70
2023-05-02T17:44:57.080Z,21.70
2023-05-02T17:48:39.070Z,21.70
2023-05-02T17:52:21.393Z,21.60
2023-05-02T17:56:06.309Z,21.70
2023-05-02T17:59:48.100Z,21.70
2023-05-02T18:03:29.869Z,21.60
2023-05-02T18:07:11.705Z,21.60
2023-05-02T18:10:53.552Z,21.60
2023-05-02T18:14:35.365Z,21.60
2023-05-02T18:18:17.282Z,21.60
2023-05-02T18:21:59.009Z,21.60
2023-05-02T18:25:40.923Z,21.60
2023-05-02T18:29:22.658Z,21.60
2023-05-02T18:33:05.153Z,21.50
2023-05-02T18:36:46.946Z,21.60
2023-05-02T18:40:28.716Z,21.50
2023-05-02T18:44:11.515Z,21.50
2023-05-02T18:47:53.492Z,21.50
2023-05-02T18:51:35.735Z,21.50
2023-05-02T18:55:17.973Z,21.50
2023-05-02T18:59:00.027Z,21.50
2023-05-02T19:02:44.831Z,21.50
2023-05-02T19:06:28.384Z,21.50
2023-05-02T19:10:11.194Z,21.50
2023-05-02T19:13:53.104Z,21.50
2023-05-02T19:17:35.177Z,21.50
2023-05-02T19:21:16.959Z,21.40
2023-05-02T19:25:01.696Z,21.40
2023-05-02T19:28:47.585Z,21.40
2023-05-02T19:32:29.787Z,21.40
2023-05-02T19:36:16.501Z,21.40
2023-05-02T19:39:59.271Z,21.40
2023-05-02T19:43:41.041Z,21.40
2023-05-02T19:47:22.876Z,21.40
2023-05-02T19:51:05.632Z,21.40
2023-05-02T19:54:55.074Z,21.40
2023-05-02T19:58:36.880Z,21.40
2023-05-02T20:02:23.477Z,21.40
2023-05-02T20:06:05.366Z,21.40
2023-05-02T20:09:47.152Z,21.40
2023-05-02T20:13:29.003Z,21.40
2023-05-02T20:17:10.787Z,21.40
2023-05-02T20:20:52.530Z,21.40
2023-05-02T20:24:38.031Z,21.40
2023-05-02T20:28:23.493Z,21.40
2023-05-02T20:32:05.657Z,21.50
2023-05-02T20:35:54.441Z,21.50
2023-05-02T20:39:39.816Z,21.50
2023-05-02T20:43:23.063Z,21.50
2023-05-02T20:47:04.925Z,21.50
2023-05-02T20:50:54.384Z,21.50
2023-05-02T20:54:36.106Z,21.50
2023-05-02T20:58:17.849Z,21.60
2023-05-02T21:01:59.664Z,21.60
2023-05-02T21:05:41.465Z,21.50
2023-05-02T21:09:24.244Z,21.60
2023-05-02T21:13:05.966Z,21.60
2023-05-02T21:16:49.281Z,21.60
2023-05-02T21:20:31.064Z,21.60
2023-05-02T21:24:12.809Z,21.60
2023-05-02T21:27:58.162Z,21.60
2023-05-02T21:31:40.031Z,21.60
2023-05-02T21:35:21.878Z,21.50
2023-05-02T21:39:03.973Z,21.60
2023-05-02T21:42:45.664Z,21.60
2023-05-02T21:46:27.487Z,21.60
2023-05-02T21:50:09.449Z,21.60
2023-05-02T21:53:52.918Z,21.50
2023-05-02T21:57:34.705Z,21.50
2023-05-02T22:01:16.971Z,21.50
2023-05-02T22:04:58.837Z,21.50
2023-05-02T22:08:41.233Z,21.50
2023-05-02T22:12:26.757Z,21.50
2023-05-02T22:16:09.727Z,21.50
2023-05-02T22:19:55.339Z,21.50
2023-05-02T22:23:37.125Z,21.50
2023-05-02T22:27:18.867Z,21.50
2023-05-02T22:31:02.781Z,21.50
2023-05-02T22:34:44.491Z,21.50
2023-05-02T22:38:26.263Z,21.50
2023-05-02T22:42:08.235Z,21.50
2023-05-02T22:45:51.410Z,21.50
2023-05-02T22:49:36.290Z,21.50
2023-05-02T22:53:21.566Z,21.50
2023-05-02T22:57:03.476Z,21.50
2023-05-02T23:00:46.189Z,21.50
2023-05-02T23:04:34.553Z,21.50
2023-05-02T23:08:16.389Z,21.50
2023-05-02T23:11:58.112Z,21.40
2023-05-02T23:15:40.132Z,21.50
2023-05-02T23:19:21.889Z,21.50
2023-05-02T23:23:04.122Z,21.50
2023-05-02T23:26:45.998Z,21.50
2023-05-02T23:30:29.810Z,21.40
2023-05-02T23:34:12.413Z,21.40
2023-05-02T23:37:54.285Z,21.40
2023-05-02T23:41:36.209Z,21.50
2023-05-02T23:45:19.676Z,21.50
2023-05-02T23:49:01.372Z,21.40
2023-05-02T23:52:43.106Z,21.40
2023-05-02T23:56:25.066Z,21.40
